Time;durP1;ratioP1;P1;durP2;ratioP2;P2;SDS_P1;SDS_P2;PMS_P1;PMS_P2;Temp;Humidity;BMP_temperature;BMP_pressure;BME280_temperature;BME280_humidity;BME280_pressure;Samples;Min_cycle;Max_cycle;Signal;HPM_P1;HPM_P2
2022/10/01 00:00:57;;;;;;;9.02;5.82;;;;;;;5.86;100.00;95566.97;4924951;29;24997;-72
2022/10/01 00:03:25;;;;;;;8.85;6.97;;;;;;;5.95;100.00;95555.44;4931786;29;24955;-72
2022/10/01 00:05:59;;;;;;;6.53;5.15;;;;;;;6.04;100.00;95560.13;4932466;29;24442;-72
2022/10/01 00:08:27;;;;;;;9.63;6.57;;;;;;;6.11;100.00;95564.06;4924049;29;25072;-72
2022/10/01 00:10:53;;;;;;;8.73;6.13;;;;;;;6.19;100.00;95566.25;4932530;29;24505;-72
2022/10/01 00:13:20;;;;;;;8.17;5.40;;;;;;;6.19;100.00;95561.97;4929764;29;24915;-72
2022/10/01 00:15:48;;;;;;;4.32;3.90;;;;;;;6.23;100.00;95553.19;4932839;29;24438;-72
2022/10/01 00:18:15;;;;;;;5.57;3.85;;;;;;;6.22;100.00;95559.22;4930662;29;24441;-72
2022/10/01 00:20:42;;;;;;;4.60;3.47;;;;;;;6.15;100.00;95554.47;4932213;29;24435;-72
2022/10/01 00:23:09;;;;;;;6.47;3.35;;;;;;;6.15;100.00;95547.56;4926139;29;24442;-72
2022/10/01 00:25:35;;;;;;;5.65;4.07;;;;;;;5.98;100.00;95550.16;4926459;29;24805;-73
2022/10/01 00:28:02;;;;;;;6.70;4.40;;;;;;;5.99;100.00;95547.50;4924223;29;24494;-72
2022/10/01 00:30:28;;;;;;;6.13;3.83;;;;;;;5.98;100.00;95550.97;4922510;29;24452;-72
2022/10/01 00:32:56;;;;;;;4.15;2.83;;;;;;;6.06;100.00;95542.91;4927661;29;24470;-72
2022/10/01 00:35:23;;;;;;;4.57;3.55;;;;;;;6.12;100.00;95557.19;4932647;29;24439;-72
2022/10/01 00:37:51;;;;;;;4.05;3.35;;;;;;;5.91;100.00;95554.72;4932713;29;24447;-72
2022/10/01 00:40:19;;;;;;;5.55;2.97;;;;;;;5.78;100.00;95559.63;4925407;29;24877;-73
2022/10/01 00:42:46;;;;;;;3.60;2.97;;;;;;;5.66;100.00;95564.50;4931722;29;24438;-72
2022/10/01 00:45:14;;;;;;;3.63;3.03;;;;;;;5.65;100.00;95565.41;4934056;29;25023;-72
2022/10/01 00:47:45;;;;;;;3.20;2.90;;;;;;;5.54;100.00;95576.16;4936478;29;24439;-72
2022/10/01 00:50:18;;;;;;;5.53;3.60;;;;;;;5.63;100.00;95582.59;4933805;29;24442;-72
2022/10/01 00:52:50;;;;;;;7.70;6.93;;;;;;;5.71;100.00;95577.94;4929959;29;24473;-72
2022/10/01 00:55:22;;;;;;;11.90;6.93;;;;;;;5.89;100.00;95566.78;4935030;29;24534;-72
2022/10/01 00:57:49;;;;;;;4.35;3.75;;;;;;;6.02;100.00;95573.06;4928353;29;24497;-72
2022/10/01 01:00:17;;;;;;;4.88;3.35;;;;;;;5.98;100.00;95573.28;4923145;29;24442;-72
2022/10/01 01:02:44;;;;;;;3.92;3.20;;;;;;;6.06;100.00;95559.16;4931955;29;24466;-72
2022/10/01 01:05:12;;;;;;;4.25;3.08;;;;;;;6.16;100.00;95564.69;4933625;29;24439;-72
2022/10/01 01:07:43;;;;;;;5.25;3.03;;;;;;;6.16;100.00;95563.88;4926426;29;24450;-72
2022/10/01 01:10:10;;;;;;;4.47;3.05;;;;;;;6.22;100.00;95566.13;4934159;29;24435;-72
2022/10/01 01:12:51;;;;;;;4.10;3.13;;;;;;;6.09;100.00;95563.31;4931931;29;24439;-73
2022/10/01 01:15:24;;;;;;;4.28;3.22;;;;;;;6.15;100.00;95563.00;4933806;29;24482;-72
2022/10/01 01:17:56;;;;;;;3.70;3.20;;;;;;;6.09;100.00;95552.22;4936161;29;20744;-73
2022/10/01 01:20:42;;;;;;;5.45;3.30;;;;;;;6.07;100.00;95553.09;4931871;29;24793;-72
2022/10/01 01:23:26;;;;;;;3.65;3.03;;;;;;;6.06;100.00;95550.59;4932950;29;24438;-72
2022/10/01 01:26:02;;;;;;;4.70;3.95;;;;;;;6.07;100.00;95544.56;4935660;29;25022;-72
2022/10/01 01:28:34;;;;;;;3.67;3.00;;;;;;;6.08;100.00;95533.34;4934130;29;24440;-72
2022/10/01 01:31:04;;;;;;;3.75;2.80;;;;;;;6.17;100.00;95540.63;4927638;29;24793;-72
2022/10/01 01:33:34;;;;;;;3.33;2.95;;;;;;;6.24;100.00;95530.88;4935120;29;24473;-72
2022/10/01 01:36:05;;;;;;;2.80;2.50;;;;;;;6.27;100.00;95523.03;4935506;29;20727;-72
2022/10/01 01:38:36;;;;;;;4.15;3.13;;;;;;;6.22;100.00;95518.09;4934532;29;20761;-72
2022/10/01 01:41:05;;;;;;;7.35;3.95;;;;;;;6.14;100.00;95516.81;4929976;29;20804;-73
2022/10/01 01:43:37;;;;;;;7.93;4.22;;;;;;;6.09;100.00;95511.91;4933489;29;20821;-72
2022/10/01 01:46:07;;;;;;;7.22;3.97;;;;;;;6.15;100.00;95513.31;4931994;29;24454;-72
2022/10/01 01:48:37;;;;;;;4.95;3.55;;;;;;;6.02;100.00;95511.38;4928995;29;21259;-72
2022/10/01 01:51:11;;;;;;;8.80;3.83;;;;;;;6.05;100.00;95503.50;4926800;29;21377;-72
2022/10/01 01:53:38;;;;;;;4.72;3.60;;;;;;;6.13;100.00;95495.41;4934758;29;20855;-72
2022/10/01 01:56:06;;;;;;;4.63;3.10;;;;;;;6.17;100.00;95494.34;4929516;29;25210;-72
2022/10/01 01:58:35;;;;;;;2.90;2.60;;;;;;;6.22;100.00;95491.53;4923990;29;24438;-72
2022/10/01 02:01:02;;;;;;;3.40;2.58;;;;;;;6.25;100.00;95487.06;4931753;29;24442;-72
2022/10/01 02:03:33;;;;;;;2.97;2.40;;;;;;;6.26;100.00;95481.00;4929626;29;24438;-72
2022/10/01 02:06:11;;;;;;;5.63;2.50;;;;;;;6.32;100.00;95479.88;4924243;29;20787;-72
2022/10/01 02:08:45;;;;;;;2.90;2.60;;;;;;;6.34;100.00;95478.09;4935322;29;20774;-73
2022/10/01 02:11:20;;;;;;;2.47;2.28;;;;;;;6.21;100.00;95485.56;4929132;29;24438;-72
2022/10/01 02:13:59;;;;;;;2.70;2.20;;;;;;;6.17;100.00;95486.63;4934831;29;20743;-72
2022/10/01 02:16:33;;;;;;;4.32;2.50;;;;;;;6.26;100.00;95477.63;4923921;29;24471;-72
2022/10/01 02:19:04;;;;;;;4.20;2.53;;;;;;;6.25;100.00;95481.09;4931287;29;21596;-72
2022/10/01 02:21:34;;;;;;;3.92;2.72;;;;;;;6.16;100.00;95471.28;4930529;29;24437;-72
2022/10/01 02:24:07;;;;;;;3.87;2.53;;;;;;;6.23;100.00;95468.34;4933802;29;24441;-72
2022/10/01 02:26:36;;;;;;;6.78;2.65;;;;;;;6.34;100.00;95467.78;4930944;29;24434;-72
2022/10/01 02:29:08;;;;;;;3.05;2.25;;;;;;;6.37;100.00;95459.91;4933937;29;24466;-72
2022/10/01 02:31:35;;;;;;;3.00;2.70;;;;;;;6.24;100.00;95464.03;4931636;29;20687;-72
2022/10/01 02:34:05;;;;;;;3.60;2.50;;;;;;;6.25;100.00;95457.97;4933872;29;25042;-72
2022/10/01 02:36:33;;;;;;;4.90;2.92;;;;;;;6.21;100.00;95453.88;4933470;29;21349;-72
2022/10/01 02:39:01;;;;;;;5.63;2.88;;;;;;;6.20;100.00;95452.22;4934386;29;24442;-72
2022/10/01 02:41:33;;;;;;;2.78;2.40;;;;;;;6.24;100.00;95446.03;4930649;29;24438;-72
2022/10/01 02:44:07;;;;;;;3.95;2.40;;;;;;;6.23;100.00;95446.91;4933798;29;20728;-72
2022/10/01 02:46:41;;;;;;;3.17;2.17;;;;;;;6.20;100.00;95442.78;4931427;29;20797;-72
2022/10/01 02:49:08;;;;;;;3.85;2.25;;;;;;;6.22;100.00;95446.09;4933246;29;20812;-72
2022/10/01 02:51:45;;;;;;;6.03;2.38;;;;;;;6.19;100.00;95443.69;4932800;29;20793;-74
2022/10/01 02:54:17;;;;;;;4.00;2.38;;;;;;;6.28;100.00;95445.78;4933482;29;24471;-72
2022/10/01 02:59:29;;;;;;;3.63;2.40;;;;;;;6.24;100.00;95443.44;4930801;29;20712;-72
2022/10/01 03:01:56;;;;;;;2.88;2.03;;;;;;;6.15;100.00;95449.03;4933489;29;20781;-72
2022/10/01 03:04:22;;;;;;;4.95;2.22;;;;;;;6.10;100.00;95445.88;4929844;29;20783;-72
2022/10/01 03:06:49;;;;;;;3.42;2.38;;;;;;;6.14;100.00;95437.09;4929586;29;24442;-72
2022/10/01 03:09:15;;;;;;;2.88;2.10;;;;;;;6.05;100.00;95440.97;4925723;29;24446;-72
2022/10/01 03:11:42;;;;;;;2.17;1.98;;;;;;;6.16;100.00;95448.16;4924636;29;24524;-72
2022/10/01 03:14:09;;;;;;;3.05;2.03;;;;;;;6.21;100.00;95453.88;4925243;29;24490;-72
2022/10/01 03:16:37;;;;;;;6.28;1.90;;;;;;;6.22;100.00;95448.66;4928768;29;24461;-72
2022/10/01 03:19:05;;;;;;;3.20;2.10;;;;;;;6.16;100.00;95440.44;4930351;29;24461;-72
2022/10/01 03:21:31;;;;;;;2.72;2.20;;;;;;;6.25;100.00;95440.78;4930944;29;24435;-72
2022/10/01 03:23:58;;;;;;;6.63;2.13;;;;;;;6.28;100.00;95442.38;4933384;29;24439;-72
2022/10/01 03:26:24;;;;;;;2.30;1.87;;;;;;;6.33;100.00;95435.25;4933272;29;24992;-72
2022/10/01 03:28:51;;;;;;;2.03;1.83;;;;;;;6.35;100.00;95437.75;4933661;29;20856;-72
2022/10/01 03:31:17;;;;;;;3.35;1.98;;;;;;;6.39;100.00;95431.53;4930333;29;21158;-72
2022/10/01 03:33:45;;;;;;;2.88;1.80;;;;;;;6.41;100.00;95438.25;4927983;29;25047;-72
2022/10/01 03:36:12;;;;;;;2.38;2.08;;;;;;;6.42;100.00;95444.25;4933503;29;20824;-72
2022/10/01 03:38:38;;;;;;;3.65;2.13;;;;;;;6.41;100.00;95424.56;4928572;29;24460;-72
2022/10/01 03:41:05;;;;;;;2.42;2.22;;;;;;;6.45;100.00;95414.06;4933255;29;24430;-72
2022/10/01 03:43:31;;;;;;;3.20;2.17;;;;;;;6.51;100.00;95420.59;4933041;29;24439;-72
2022/10/01 03:45:58;;;;;;;3.03;2.03;;;;;;;6.47;100.00;95417.38;4930701;29;24813;-72
2022/10/01 03:48:25;;;;;;;2.83;1.75;;;;;;;6.53;100.00;95414.47;4920364;29;24434;-72
2022/10/01 03:50:54;;;;;;;2.45;1.60;;;;;;;6.48;100.00;95408.72;4925316;29;24441;-72
2022/10/01 03:53:21;;;;;;;2.35;1.70;;;;;;;6.51;100.00;95411.13;4927003;29;20770;-72
2022/10/01 03:55:48;;;;;;;2.17;1.77;;;;;;;6.59;100.00;95405.59;4928313;29;21351;-72
2022/10/01 03:58:14;;;;;;;2.30;1.73;;;;;;;6.53;100.00;95400.78;4925099;29;24980;-72
2022/10/01 04:00:41;;;;;;;2.10;1.50;;;;;;;6.61;100.00;95400.38;4930715;29;20936;-72
2022/10/01 04:03:08;;;;;;;2.67;1.70;;;;;;;6.58;100.00;95405.69;4927798;29;20821;-72
2022/10/01 04:05:34;;;;;;;3.10;1.77;;;;;;;6.59;100.00;95409.91;4933131;29;25002;-72
2022/10/01 04:08:02;;;;;;;2.20;1.70;;;;;;;6.55;100.00;95399.78;4933368;29;24442;-72
2022/10/01 04:10:28;;;;;;;1.80;1.40;;;;;;;6.61;100.00;95401.22;4925553;29;24438;-72
2022/10/01 04:12:55;;;;;;;2.90;1.70;;;;;;;6.62;100.00;95397.72;4925415;29;25035;-72
2022/10/01 04:15:21;;;;;;;2.45;1.70;;;;;;;6.64;100.00;95384.78;4931168;29;24465;-72
2022/10/01 04:17:48;;;;;;;2.80;1.70;;;;;;;6.61;100.00;95388.34;4928281;29;24522;-72
2022/10/01 04:20:15;;;;;;;2.40;1.88;;;;;;;6.67;100.00;95392.31;4930735;29;25003;-72
2022/10/01 04:22:42;;;;;;;2.15;1.42;;;;;;;6.72;100.00;95386.03;4932486;29;24438;-72
2022/10/01 04:25:11;;;;;;;2.10;1.67;;;;;;;6.76;100.00;95384.94;4930605;29;24794;-72
2022/10/01 04:27:37;;;;;;;3.67;1.67;;;;;;;6.80;100.00;95383.03;4928485;29;21356;-72
2022/10/01 04:30:06;;;;;;;2.47;1.73;;;;;;;6.88;100.00;95388.59;4930926;29;20788;-72
2022/10/01 04:32:33;;;;;;;3.15;1.95;;;;;;;6.88;100.00;95380.88;4928205;29;21361;-73
2022/10/01 04:35:02;;;;;;;2.10;1.80;;;;;;;6.94;100.00;95385.69;4932555;29;24497;-72
2022/10/01 04:37:29;;;;;;;2.40;1.83;;;;;;;6.98;100.00;95394.91;4932943;29;20890;-72
2022/10/01 04:39:55;;;;;;;1.93;1.73;;;;;;;7.01;100.00;95388.78;4930852;29;20789;-72
2022/10/01 04:42:23;;;;;;;2.80;2.10;;;;;;;6.99;100.00;95390.59;4932656;29;20777;-72
2022/10/01 04:44:50;;;;;;;6.50;2.00;;;;;;;6.98;100.00;95384.63;4927956;29;24786;-72
2022/10/01 04:47:16;;;;;;;3.80;2.05;;;;;;;6.99;100.00;95372.56;4925927;29;24446;-73
2022/10/01 04:49:43;;;;;;;2.85;1.90;;;;;;;7.07;100.00;95375.53;4930835;29;24991;-72
2022/10/01 04:52:09;;;;;;;4.70;1.80;;;;;;;7.06;100.00;95376.47;4931121;29;24446;-72
2022/10/01 04:54:35;;;;;;;1.98;1.33;;;;;;;7.18;100.00;95380.09;4985352;23;24465;-80
2022/10/01 04:57:02;;;;;;;2.40;1.67;;;;;;;7.21;100.00;95380.75;4962418;28;24445;-81
2022/10/01 04:59:30;;;;;;;1.70;1.38;;;;;;;7.24;100.00;95372.03;4968956;28;24806;-80
2022/10/01 05:01:57;;;;;;;1.40;1.30;;;;;;;7.33;100.00;95379.25;4969926;28;20800;-80
2022/10/01 05:04:23;;;;;;;1.92;1.13;;;;;;;7.41;100.00;95373.66;4968723;28;20786;-80
2022/10/01 05:06:50;;;;;;;9.40;1.43;;;;;;;7.48;100.00;95370.63;4969036;28;20766;-80
2022/10/01 05:09:16;;;;;;;3.90;1.42;;;;;;;7.50;100.00;95371.41;4964885;28;20786;-80
2022/10/01 05:11:43;;;;;;;3.40;1.48;;;;;;;7.62;100.00;95367.28;4969667;28;24445;-80
2022/10/01 05:14:11;;;;;;;3.25;1.63;;;;;;;7.63;100.00;95365.53;4958804;28;20807;-80
2022/10/01 05:16:38;;;;;;;3.38;1.63;;;;;;;7.69;100.00;95360.84;4966530;28;20817;-80
2022/10/01 05:19:05;;;;;;;2.47;1.25;;;;;;;7.77;100.00;95368.16;4966576;28;20920;-80
2022/10/01 05:21:32;;;;;;;2.80;1.30;;;;;;;7.76;100.00;95357.00;4967275;28;24442;-80
2022/10/01 05:23:58;;;;;;;1.45;1.10;;;;;;;7.78;100.00;95353.50;4966389;28;24465;-81
2022/10/01 05:26:25;;;;;;;6.40;1.50;;;;;;;7.79;100.00;95358.59;4968867;28;24799;-81
2022/10/01 05:28:52;;;;;;;1.83;1.02;;;;;;;7.79;100.00;95352.56;4964791;28;20850;-81
2022/10/01 05:31:19;;;;;;;3.65;1.23;;;;;;;7.83;100.00;95344.59;4972489;28;20873;-81
2022/10/01 05:33:47;;;;;;;2.13;1.40;;;;;;;7.85;100.00;95347.06;4970189;28;20789;-80
2022/10/01 05:36:13;;;;;;;2.55;1.13;;;;;;;7.88;100.00;95332.25;4969518;28;20843;-80
2022/10/01 05:38:41;;;;;;;2.75;1.27;;;;;;;7.93;100.00;95340.53;4967211;28;24438;-81
2022/10/01 05:41:07;;;;;;;2.58;1.40;;;;;;;8.02;100.00;95346.09;4973429;28;20816;-82
2022/10/01 05:43:35;;;;;;;2.80;1.30;;;;;;;8.02;100.00;95333.19;4971356;28;24434;-78
2022/10/01 05:46:02;;;;;;;3.40;1.13;;;;;;;8.02;100.00;95328.03;4969090;28;20864;-79
2022/10/01 05:48:35;;;;;;;7.53;1.42;;;;;;;8.06;100.00;95321.78;4966204;28;24536;-79
2022/10/01 05:51:06;;;;;;;1.48;1.05;;;;;;;8.10;100.00;95310.34;4961419;28;21568;-79
2022/10/01 05:53:34;;;;;;;5.13;1.40;;;;;;;8.20;100.00;95296.81;4965840;28;20761;-79
2022/10/01 05:56:01;;;;;;;3.03;1.20;;;;;;;8.17;100.00;95299.56;4964912;28;24454;-79
2022/10/01 05:58:28;;;;;;;1.90;1.08;;;;;;;8.17;100.00;95303.91;4971266;28;20783;-78
2022/10/01 06:00:55;;;;;;;3.15;1.13;;;;;;;8.14;100.00;95296.34;4965784;28;24796;-78
2022/10/01 06:03:22;;;;;;;3.22;1.00;;;;;;;8.30;100.00;95283.31;4966211;28;20780;-78
2022/10/01 06:05:48;;;;;;;2.30;1.20;;;;;;;8.22;100.00;95283.78;4963495;28;24434;-78
2022/10/01 06:08:16;;;;;;;1.20;0.95;;;;;;;8.17;100.00;95288.41;4970658;28;24425;-78
2022/10/01 06:10:43;;;;;;;2.25;1.10;;;;;;;8.18;100.00;95295.22;4972436;28;24811;-80
2022/10/01 06:13:15;;;;;;;1.10;0.82;;;;;;;8.16;100.00;95279.84;4965561;28;24446;-76
2022/10/01 06:15:41;;;;;;;3.58;1.38;;;;;;;8.16;100.00;95276.44;4967430;28;20737;-78
2022/10/01 06:18:10;;;;;;;1.50;1.08;;;;;;;8.10;100.00;95281.97;4967895;28;24994;-78
2022/10/01 06:20:38;;;;;;;3.63;1.20;;;;;;;8.23;100.00;95278.56;4959783;28;20789;-78
2022/10/01 06:23:08;;;;;;;1.52;0.88;;;;;;;8.24;100.00;95269.88;4971600;28;20822;-78
2022/10/01 06:25:37;;;;;;;2.10;1.13;;;;;;;8.31;100.00;95279.84;4959676;28;21136;-78
2022/10/01 06:28:05;;;;;;;3.05;1.25;;;;;;;8.33;100.00;95280.56;4971270;28;20825;-78
2022/10/01 06:30:35;;;;;;;1.33;0.75;;;;;;;8.42;100.00;95277.47;4974708;28;20797;-79
2022/10/01 06:33:02;;;;;;;2.13;1.00;;;;;;;8.38;100.00;95261.34;4972597;28;20775;-78
2022/10/01 06:35:29;;;;;;;1.30;0.80;;;;;;;8.35;100.00;95271.00;4974431;28;20836;-78
2022/10/01 06:37:55;;;;;;;1.98;1.00;;;;;;;8.39;100.00;95260.41;4973207;28;24442;-78
2022/10/01 06:40:22;;;;;;;4.45;1.17;;;;;;;8.31;100.00;95267.78;4973430;28;21120;-78
2022/10/01 06:42:50;;;;;;;1.58;1.10;;;;;;;8.35;100.00;95286.47;4973742;28;24445;-78
2022/10/01 06:45:17;;;;;;;1.60;0.90;;;;;;;8.40;100.00;95280.13;4969465;28;21246;-78
2022/10/01 06:47:44;;;;;;;1.27;0.93;;;;;;;8.42;100.00;95278.28;4970877;28;24472;-78
2022/10/01 06:50:11;;;;;;;1.80;1.00;;;;;;;8.37;100.00;95280.31;4970087;28;20786;-78
2022/10/01 06:52:49;;;;;;;2.60;1.00;;;;;;;8.36;100.00;95277.78;4972451;28;20872;-80
2022/10/01 06:55:17;;;;;;;0.90;0.70;;;;;;;8.40;100.00;95274.13;4973920;28;24826;-78
2022/10/01 06:57:43;;;;;;;1.63;0.80;;;;;;;8.45;100.00;95288.41;4974058;28;24429;-80
2022/10/01 07:00:13;;;;;;;1.52;1.02;;;;;;;8.44;100.00;95285.91;4974964;28;20770;-79
2022/10/01 07:02:40;;;;;;;2.22;0.95;;;;;;;8.39;100.00;95278.47;4973035;28;20727;-80
2022/10/01 07:05:08;;;;;;;2.30;1.20;;;;;;;8.42;100.00;95288.59;4975111;28;20781;-80
2022/10/01 07:07:37;;;;;;;2.80;0.98;;;;;;;8.42;100.00;95282.63;4970797;28;20873;-80
2022/10/01 07:10:06;;;;;;;1.20;0.93;;;;;;;8.38;100.00;95275.97;4970512;28;21162;-79
2022/10/01 07:12:32;;;;;;;5.03;1.45;;;;;;;8.47;100.00;95273.66;4973583;28;24444;-81
2022/10/01 07:14:59;;;;;;;5.05;3.03;;;;;;;8.36;100.00;95257.97;4971888;28;24457;-77
2022/10/01 07:17:27;;;;;;;4.63;1.48;;;;;;;8.37;100.00;95254.50;4972939;28;24986;-81
2022/10/01 07:19:54;;;;;;;3.30;0.98;;;;;;;8.42;100.00;95242.16;4972772;28;24430;-81
2022/10/01 07:22:22;;;;;;;2.20;1.10;;;;;;;8.52;100.00;95249.31;4972470;28;24431;-81
2022/10/01 07:24:49;;;;;;;1.80;0.82;;;;;;;8.53;100.00;95245.78;4972815;28;20822;-81
2022/10/01 07:27:16;;;;;;;2.75;2.15;;;;;;;8.62;100.00;95245.22;4970499;28;20776;-81
2022/10/01 07:29:43;;;;;;;1.73;0.80;;;;;;;8.53;100.00;95244.06;4974687;28;21334;-81
2022/10/01 07:32:09;;;;;;;2.17;0.98;;;;;;;8.48;100.00;95256.41;4973175;28;24995;-82
2022/10/01 07:34:39;;;;;;;2.00;1.47;;;;;;;8.50;100.00;95256.34;4973819;28;24479;-81
2022/10/01 07:37:06;;;;;;;1.83;1.00;;;;;;;8.65;100.00;95250.19;4973362;28;20848;-82
2022/10/01 07:39:33;;;;;;;1.55;0.90;;;;;;;8.68;100.00;95257.75;4969231;28;20770;-83
2022/10/01 07:41:59;;;;;;;2.00;0.90;;;;;;;8.66;100.00;95249.28;4968039;28;24434;-83
2022/10/01 07:44:28;;;;;;;1.30;0.90;;;;;;;8.68;100.00;95266.31;4968299;28;24811;-82
2022/10/01 07:46:55;;;;;;;1.25;1.08;;;;;;;8.73;100.00;95264.28;4968903;28;20762;-82
2022/10/01 07:49:22;;;;;;;0.80;0.80;;;;;;;8.65;100.00;95265.69;4967720;28;20834;-83
2022/10/01 07:51:51;;;;;;;0.82;0.73;;;;;;;8.60;100.00;95254.81;4969079;28;24501;-82
2022/10/01 07:54:19;;;;;;;1.27;0.95;;;;;;;8.57;100.00;95261.00;4967743;28;20824;-85
2022/10/01 07:56:45;;;;;;;1.40;0.70;;;;;;;8.56;100.00;95264.50;4967683;28;20897;-82
2022/10/01 07:59:12;;;;;;;3.20;0.90;;;;;;;8.63;100.00;95260.59;4972202;28;24429;-81
2022/10/01 08:01:38;;;;;;;1.85;0.90;;;;;;;8.57;100.00;95261.00;4969896;28;24444;-81
2022/10/01 08:05:16;;;;;;;2.17;0.88;;;;;;;8.61;100.00;95277.13;4968162;28;24986;-81
2022/10/01 08:06:53;;;;;;;1.23;0.73;;;;;;;8.58;100.00;95273.00;4970046;28;24438;-82
2022/10/01 08:09:20;;;;;;;1.08;0.70;;;;;;;8.64;100.00;95272.63;4970060;28;24426;-81
2022/10/01 08:11:46;;;;;;;1.70;0.73;;;;;;;8.68;100.00;95284.41;4967513;28;24452;-82
2022/10/01 08:14:14;;;;;;;1.05;0.80;;;;;;;8.61;100.00;95279.72;4967269;28;24548;-83
2022/10/01 08:16:40;;;;;;;1.20;0.80;;;;;;;8.63;100.00;95283.84;4968278;28;20797;-86
2022/10/01 08:19:07;;;;;;;1.15;0.70;;;;;;;8.59;100.00;95284.13;4969551;28;24465;-83
2022/10/01 08:21:35;;;;;;;0.95;0.80;;;;;;;8.62;100.00;95281.38;4965364;28;24492;-83
2022/10/01 08:24:03;;;;;;;3.75;0.93;;;;;;;8.62;100.00;95289.94;4970066;28;24493;-83
2022/10/01 08:26:30;;;;;;;2.67;1.15;;;;;;;8.66;100.00;95290.56;4967611;28;20820;-84
2022/10/01 08:28:57;;;;;;;1.88;1.10;;;;;;;8.63;100.00;95285.59;4971294;28;24440;-81
2022/10/01 08:31:24;;;;;;;1.83;1.23;;;;;;;8.61;100.00;95292.63;4965547;28;24449;-81
2022/10/01 08:33:50;;;;;;;2.07;1.10;;;;;;;8.58;100.00;95279.91;4970480;28;25076;-81
2022/10/01 08:36:18;;;;;;;1.60;1.00;;;;;;;8.63;100.00;95281.25;4969677;28;24464;-81
2022/10/01 08:38:46;;;;;;;2.03;1.50;;;;;;;8.64;100.00;95295.00;4971254;28;20766;-81
2022/10/01 08:41:31;;;;;;;2.22;1.15;;;;;;;8.67;100.00;95298.22;4966421;28;20816;-81
2022/10/01 08:43:59;;;;;;;1.67;1.10;;;;;;;8.68;100.00;95306.81;4970774;28;20834;-82
2022/10/01 08:46:33;;;;;;;1.80;1.00;;;;;;;8.73;100.00;95297.84;4967226;28;20762;-81
2022/10/01 08:49:07;;;;;;;2.13;1.05;;;;;;;8.64;100.00;95288.09;4970613;28;24799;-81
2022/10/01 08:51:39;;;;;;;0.93;0.75;;;;;;;8.73;100.00;95292.66;4969421;28;20790;-81
2022/10/01 08:54:18;;;;;;;1.35;0.88;;;;;;;8.78;100.00;95301.88;4969360;28;20698;-81
2022/10/01 08:56:47;;;;;;;0.88;0.80;;;;;;;8.79;100.00;95293.19;4969761;28;20708;-81
2022/10/01 08:59:35;;;;;;;1.47;0.70;;;;;;;8.84;100.00;95304.09;4968662;28;20819;-81
2022/10/01 09:02:02;;;;;;;0.75;0.52;;;;;;;8.81;100.00;95307.69;4968628;28;24436;-81
2022/10/01 09:04:29;;;;;;;1.10;0.80;;;;;;;8.87;100.00;95311.63;4971376;28;25043;-81
2022/10/01 09:07:03;;;;;;;3.67;1.10;;;;;;;8.87;100.00;95314.22;4974664;28;24447;-81
2022/10/01 09:09:41;;;;;;;2.15;1.00;;;;;;;8.84;100.00;95317.81;4967548;28;21088;-81
2022/10/01 09:12:30;;;;;;;2.08;0.70;;;;;;;8.91;100.00;95316.50;4973365;28;20766;-81
2022/10/01 09:15:14;;;;;;;0.73;0.65;;;;;;;8.98;100.00;95316.13;4971258;28;24425;-81
2022/10/01 09:17:54;;;;;;;2.77;1.03;;;;;;;9.00;100.00;95317.66;4964491;28;24445;-81
2022/10/01 09:20:26;;;;;;;2.40;0.70;;;;;;;9.07;100.00;95310.34;4972014;28;24448;-80
2022/10/01 09:23:07;;;;;;;0.52;0.40;;;;;;;9.23;100.00;95315.34;4969335;28;24445;-81
2022/10/01 09:25:37;;;;;;;1.30;0.50;;;;;;;9.30;100.00;95317.44;4967680;28;24651;-81
2022/10/01 09:28:14;;;;;;;0.77;0.47;;;;;;;9.44;100.00;95325.13;4974229;28;24447;-81
2022/10/01 09:30:44;;;;;;;0.50;0.35;;;;;;;9.43;100.00;95325.25;4972760;28;24863;-81
2022/10/01 09:33:16;;;;;;;1.35;0.80;;;;;;;9.44;100.00;95327.72;4969989;28;24529;-81
2022/10/01 09:35:46;;;;;;;1.02;0.50;;;;;;;9.45;100.00;95321.63;4973463;28;25045;-81
2022/10/01 09:38:19;;;;;;;0.80;0.50;;;;;;;9.40;100.00;95315.94;4972285;28;24418;-81
2022/10/01 09:40:51;;;;;;;0.70;0.50;;;;;;;9.45;100.00;95320.78;4971839;28;20797;-81
2022/10/01 09:43:20;;;;;;;1.33;0.83;;;;;;;9.57;100.00;95334.69;4972093;28;24523;-81
2022/10/01 09:45:47;;;;;;;1.75;1.65;;;;;;;9.49;100.00;95321.41;4971964;28;24437;-81
2022/10/01 09:48:23;;;;;;;4.47;2.88;;;;;;;9.48;100.00;95333.50;4969607;28;24460;-81
2022/10/01 09:50:54;;;;;;;4.85;4.00;;;;;;;9.44;100.00;95327.72;4972215;28;24437;-81
2022/10/01 09:53:26;;;;;;;17.13;11.13;;;;;;;9.51;100.00;95335.06;4971694;28;20802;-81
2022/10/01 09:55:55;;;;;;;1.80;1.70;;;;;;;9.51;100.00;95330.72;4971991;28;24489;-81
2022/10/01 09:58:26;;;;;;;0.73;0.60;;;;;;;9.57;100.00;95339.88;4972065;28;24441;-81
2022/10/01 10:00:55;;;;;;;1.10;0.50;;;;;;;9.60;100.00;95345.66;4969278;28;24426;-82
2022/10/01 10:03:24;;;;;;;1.35;1.02;;;;;;;9.59;100.00;95343.97;4969554;28;24436;-82
2022/10/01 10:05:52;;;;;;;3.17;2.70;;;;;;;9.63;100.00;95352.38;4974543;28;24452;-80
2022/10/01 10:08:26;;;;;;;9.77;6.35;;;;;;;9.58;100.00;95362.19;4966781;28;25001;-82
2022/10/01 10:10:59;;;;;;;0.98;0.70;;;;;;;9.59;100.00;95369.00;4974282;28;24425;-83
2022/10/01 10:13:33;;;;;;;0.30;0.30;;;;;;;9.62;100.00;95363.66;4967947;28;24888;-83
2022/10/01 10:16:06;;;;;;;1.05;0.50;;;;;;;9.60;100.00;95365.50;4974344;28;24871;-83
2022/10/01 10:18:35;;;;;;;0.20;0.20;;;;;;;9.67;100.00;95367.56;4969372;28;24462;-83
2022/10/01 10:21:06;;;;;;;0.30;0.20;;;;;;;9.56;100.00;95372.63;4975440;28;24445;-83
2022/10/01 10:23:33;;;;;;;0.70;0.40;;;;;;;9.58;100.00;95367.38;4968516;28;24462;-83
2022/10/01 10:26:01;;;;;;;1.58;0.70;;;;;;;9.56;100.00;95375.19;4973760;28;24452;-82
2022/10/01 10:28:39;;;;;;;1.52;0.70;;;;;;;9.58;100.00;95364.78;4974386;28;24847;-82
2022/10/01 10:31:11;;;;;;;1.05;0.50;;;;;;;9.61;100.00;95370.56;4976938;28;24441;-83
2022/10/01 10:33:37;;;;;;;0.70;0.70;;;;;;;9.60;100.00;95365.50;4976681;28;24577;-82
2022/10/01 10:36:07;;;;;;;2.38;1.67;;;;;;;9.64;100.00;95362.63;4972983;28;24460;-82
2022/10/01 10:38:35;;;;;;;1.63;1.30;;;;;;;9.73;100.00;95375.88;4969402;28;24827;-83
2022/10/01 10:41:02;;;;;;;1.58;1.30;;;;;;;9.82;100.00;95365.72;4973322;28;24800;-82
2022/10/01 10:43:34;;;;;;;4.05;1.95;;;;;;;9.93;100.00;95363.25;4971863;28;24446;-82
2022/10/01 10:46:02;;;;;;;1.30;0.98;;;;;;;10.01;100.00;95362.78;4973283;28;24532;-82
2022/10/01 10:48:35;;;;;;;0.90;0.68;;;;;;;9.94;100.00;95351.19;4968873;28;24491;-82
2022/10/01 10:51:03;;;;;;;1.87;1.00;;;;;;;9.88;100.00;95347.22;4972980;28;24430;-82
2022/10/01 10:53:40;;;;;;;1.45;1.20;;;;;;;9.80;100.00;95341.75;4965203;28;24453;-82
2022/10/01 10:56:18;;;;;;;2.42;1.67;;;;;;;9.87;100.00;95347.34;4972400;28;24457;-82
2022/10/01 10:58:47;;;;;;;2.23;1.60;;;;;;;9.90;100.00;95353.13;4971474;28;24496;-82
2022/10/01 11:01:18;;;;;;;2.20;1.90;;;;;;;9.86;100.00;95353.44;4970411;28;24465;-82
2022/10/01 11:03:48;;;;;;;1.42;1.10;;;;;;;9.85;100.00;95350.00;4971224;28;24986;-82
2022/10/01 11:06:17;;;;;;;1.27;0.88;;;;;;;9.83;100.00;95341.53;4970490;28;24433;-82
2022/10/01 11:08:45;;;;;;;0.95;0.80;;;;;;;9.95;100.00;95350.25;4970985;28;24437;-83
2022/10/01 11:11:31;;;;;;;0.52;0.50;;;;;;;9.96;100.00;95340.72;4970156;28;24433;-82
2022/10/01 11:14:14;;;;;;;2.70;0.77;;;;;;;9.92;100.00;95343.50;4968050;28;24553;-84
2022/10/01 11:16:54;;;;;;;0.90;0.63;;;;;;;9.98;100.00;95344.88;4965508;28;24508;-82
2022/10/01 11:19:53;;;;;;;1.73;1.00;;;;;;;10.03;100.00;95344.56;4971453;28;24442;-83
2022/10/01 11:22:35;;;;;;;1.02;0.70;;;;;;;10.07;100.00;95343.41;4961089;28;25015;-84
2022/10/01 11:25:18;;;;;;;1.97;0.87;;;;;;;10.08;100.00;95345.06;4970490;28;24445;-85
2022/10/01 11:27:52;;;;;;;1.15;0.90;;;;;;;10.12;100.00;95337.00;4971672;28;24458;-82
2022/10/01 11:30:23;;;;;;;1.20;0.65;;;;;;;10.09;100.00;95341.56;4966813;28;20855;-82
2022/10/01 11:32:59;;;;;;;1.40;0.60;;;;;;;10.08;100.00;95348.47;4969574;28;24466;-84
2022/10/01 11:35:43;;;;;;;1.50;0.60;;;;;;;10.03;100.00;95347.97;4964459;28;24546;-82
2022/10/01 11:38:39;;;;;;;0.80;0.40;;;;;;;10.01;100.00;95357.59;4969306;28;24450;-82
2022/10/01 11:41:19;;;;;;;0.52;0.35;;;;;;;10.04;100.00;95348.78;4962433;28;24500;-81
2022/10/01 11:43:51;;;;;;;1.17;0.55;;;;;;;10.16;100.00;95363.50;4966425;28;24470;-84
2022/10/01 11:46:28;;;;;;;0.40;0.30;;;;;;;10.29;100.00;95360.94;4967037;28;24433;-83
2022/10/01 11:49:01;;;;;;;1.50;0.40;;;;;;;10.29;100.00;95351.41;4971724;28;24477;-87